sensor_id;sensor_type;location;lat;lon;timestamp;pressure;altitude;pressure_sealevel;temperature;humidity
550;BME280;20066;48.764;9.176;2023-08-31T00:00:16;97670.72;;;16.56;72.73
550;BME280;20066;48.764;9.176;2023-08-31T00:02:44;97664.78;;;15.94;75.06
550;BME280;20066;48.764;9.176;2023-08-31T00:05:12;97669.09;;;16.21;73.18
550;BME280;20066;48.764;9.176;2023-08-31T00:07:40;97675.38;;;16.55;72.52
550;BME280;20066;48.764;9.176;2023-08-31T00:10:10;97662.91;;;15.37;76.10
550;BME280;20066;48.764;9.176;2023-08-31T00:12:38;97655.84;;;16.23;72.62
550;BME280;20066;48.764;9.176;2023-08-31T00:15:07;97658.44;;;15.59;74.29
550;BME280;20066;48.764;9.176;2023-08-31T00:17:35;97667.63;;;15.91;72.77
550;BME280;20066;48.764;9.176;2023-08-31T00:20:06;97667.22;;;15.63;73.49
550;BME280;20066;48.764;9.176;2023-08-31T00:22:35;97663.47;;;15.73;74.22
550;BME280;20066;48.764;9.176;2023-08-31T00:25:03;97678.47;;;15.62;74.59
550;BME280;20066;48.764;9.176;2023-08-31T00:27:34;97680.34;;;15.65;74.46
550;BME280;20066;48.764;9.176;2023-08-31T00:30:04;97683.56;;;15.89;73.49
550;BME280;20066;48.764;9.176;2023-08-31T00:32:34;97678.34;;;15.94;73.34
550;BME280;20066;48.764;9.176;2023-08-31T00:35:02;97682.66;;;16.33;71.47
550;BME280;20066;48.764;9.176;2023-08-31T00:37:31;97691.88;;;16.74;70.26
550;BME280;20066;48.764;9.176;2023-08-31T00:40:00;97692.34;;;15.93;73.13
550;BME280;20066;48.764;9.176;2023-08-31T00:42:28;97695.03;;;15.06;77.23
550;BME280;20066;48.764;9.176;2023-08-31T00:44:58;97694.16;;;16.12;73.62
550;BME280;20066;48.764;9.176;2023-08-31T00:47:26;97696.47;;;16.77;70.95
550;BME280;20066;48.764;9.176;2023-08-31T00:49:55;97692.25;;;16.09;72.99
550;BME280;20066;48.764;9.176;2023-08-31T00:52:24;97701.22;;;16.22;72.94
550;BME280;20066;48.764;9.176;2023-08-31T00:54:53;97700.25;;;16.41;71.81
550;BME280;20066;48.764;9.176;2023-08-31T00:57:22;97695.38;;;16.74;70.68
550;BME280;20066;48.764;9.176;2023-08-31T00:59:53;97692.09;;;16.16;72.92
550;BME280;20066;48.764;9.176;2023-08-31T01:02:30;97687.28;;;15.66;75.01
550;BME280;20066;48.764;9.176;2023-08-31T01:05:25;97676.81;;;15.80;75.18
550;BME280;20066;48.764;9.176;2023-08-31T01:08:01;97681.25;;;16.54;72.20
550;BME280;20066;48.764;9.176;2023-08-31T01:10:36;97682.47;;;15.86;73.98
550;BME280;20066;48.764;9.176;2023-08-31T01:13:11;97675.94;;;16.12;72.53
550;BME280;20066;48.764;9.176;2023-08-31T01:15:42;97682.88;;;16.13;72.79
550;BME280;20066;48.764;9.176;2023-08-31T01:18:16;97683.75;;;16.74;70.10
550;BME280;20066;48.764;9.176;2023-08-31T01:20:48;97696.31;;;16.80;69.66
550;BME280;20066;48.764;9.176;2023-08-31T01:23:19;97695.13;;;17.07;68.93
550;BME280;20066;48.764;9.176;2023-08-31T01:25:49;97693.75;;;16.77;70.89
550;BME280;20066;48.764;9.176;2023-08-31T01:28:17;97698.41;;;16.64;71.21
550;BME280;20066;48.764;9.176;2023-08-31T01:30:45;97693.91;;;16.06;73.16
550;BME280;20066;48.764;9.176;2023-08-31T01:33:15;97698.31;;;15.88;74.57
550;BME280;20066;48.764;9.176;2023-08-31T01:35:44;97702.19;;;15.74;74.98
550;BME280;20066;48.764;9.176;2023-08-31T01:38:18;97700.94;;;15.91;73.91
550;BME280;20066;48.764;9.176;2023-08-31T01:40:53;97705.59;;;15.62;75.75
550;BME280;20066;48.764;9.176;2023-08-31T01:43:23;97706.13;;;16.40;72.57
550;BME280;20066;48.764;9.176;2023-08-31T01:45:51;97703.53;;;16.36;72.50
550;BME280;20066;48.764;9.176;2023-08-31T01:48:19;97715.47;;;15.97;74.34
550;BME280;20066;48.764;9.176;2023-08-31T01:50:47;97715.25;;;15.92;75.07
550;BME280;20066;48.764;9.176;2023-08-31T01:53:15;97720.94;;;15.68;75.12
550;BME280;20066;48.764;9.176;2023-08-31T01:55:43;97721.00;;;15.94;74.60
550;BME280;20066;48.764;9.176;2023-08-31T01:58:13;97719.59;;;15.89;74.33
550;BME280;20066;48.764;9.176;2023-08-31T02:00:41;97719.56;;;16.18;73.39
550;BME280;20066;48.764;9.176;2023-08-31T02:03:11;97722.72;;;16.54;72.00
550;BME280;20066;48.764;9.176;2023-08-31T02:05:39;97717.75;;;16.53;71.93
550;BME280;20066;48.764;9.176;2023-08-31T02:08:07;97712.00;;;16.51;71.29
550;BME280;20066;48.764;9.176;2023-08-31T02:10:35;97713.28;;;15.92;73.29
550;BME280;20066;48.764;9.176;2023-08-31T02:13:03;97709.59;;;16.28;73.13
550;BME280;20066;48.764;9.176;2023-08-31T02:15:32;97702.88;;;16.45;72.27
550;BME280;20066;48.764;9.176;2023-08-31T02:18:00;97710.91;;;15.94;74.58
550;BME280;20066;48.764;9.176;2023-08-31T02:20:28;97716.22;;;16.65;71.43
550;BME280;20066;48.764;9.176;2023-08-31T02:22:57;97715.03;;;16.40;72.41
550;BME280;20066;48.764;9.176;2023-08-31T02:25:25;97718.91;;;16.27;72.98
550;BME280;20066;48.764;9.176;2023-08-31T02:27:54;97718.19;;;16.64;71.39
550;BME280;20066;48.764;9.176;2023-08-31T02:30:22;97721.97;;;16.79;70.52
550;BME280;20066;48.764;9.176;2023-08-31T02:32:51;97713.94;;;16.76;70.72
550;BME280;20066;48.764;9.176;2023-08-31T02:35:19;97727.63;;;16.60;70.43
550;BME280;20066;48.764;9.176;2023-08-31T02:37:47;97720.13;;;16.76;70.78
550;BME280;20066;48.764;9.176;2023-08-31T02:40:15;97726.97;;;16.30;72.28
550;BME280;20066;48.764;9.176;2023-08-31T02:42:43;97736.00;;;16.52;71.88
550;BME280;20066;48.764;9.176;2023-08-31T02:45:11;97740.56;;;16.43;72.88
550;BME280;20066;48.764;9.176;2023-08-31T02:47:39;97742.63;;;16.64;72.10
550;BME280;20066;48.764;9.176;2023-08-31T02:50:09;97735.88;;;16.31;72.63
550;BME280;20066;48.764;9.176;2023-08-31T02:52:36;97744.44;;;16.54;71.46
550;BME280;20066;48.764;9.176;2023-08-31T02:55:05;97743.38;;;16.65;71.38
550;BME280;20066;48.764;9.176;2023-08-31T02:57:33;97742.63;;;16.64;71.82
550;BME280;20066;48.764;9.176;2023-08-31T03:00:01;97741.31;;;16.81;71.50
550;BME280;20066;48.764;9.176;2023-08-31T03:02:31;97733.13;;;16.94;70.56
550;BME280;20066;48.764;9.176;2023-08-31T03:04:58;97736.41;;;16.89;70.56
550;BME280;20066;48.764;9.176;2023-08-31T03:07:30;97736.19;;;16.33;72.72
550;BME280;20066;48.764;9.176;2023-08-31T03:09:58;97742.28;;;16.37;73.33
550;BME280;20066;48.764;9.176;2023-08-31T03:12:26;97742.16;;;16.40;72.90
550;BME280;20066;48.764;9.176;2023-08-31T03:14:54;97739.78;;;16.30;73.15
550;BME280;20066;48.764;9.176;2023-08-31T03:17:22;97743.16;;;16.05;73.94
550;BME280;20066;48.764;9.176;2023-08-31T03:19:51;97749.13;;;16.29;73.59
550;BME280;20066;48.764;9.176;2023-08-31T03:22:19;97753.47;;;16.64;71.58
550;BME280;20066;48.764;9.176;2023-08-31T03:24:48;97760.00;;;16.67;71.62
550;BME280;20066;48.764;9.176;2023-08-31T03:27:16;97756.72;;;16.34;71.80
550;BME280;20066;48.764;9.176;2023-08-31T03:29:43;97761.47;;;15.88;73.72
550;BME280;20066;48.764;9.176;2023-08-31T03:32:11;97752.50;;;16.58;71.04
550;BME280;20066;48.764;9.176;2023-08-31T03:34:39;97747.94;;;16.30;72.06
550;BME280;20066;48.764;9.176;2023-08-31T03:37:07;97752.72;;;16.51;71.24
550;BME280;20066;48.764;9.176;2023-08-31T03:39:36;97750.97;;;16.57;71.12
550;BME280;20066;48.764;9.176;2023-08-31T03:42:06;97753.47;;;16.64;70.68
550;BME280;20066;48.764;9.176;2023-08-31T03:44:34;97754.63;;;16.25;72.12
550;BME280;20066;48.764;9.176;2023-08-31T03:47:04;97750.94;;;16.32;71.65
550;BME280;20066;48.764;9.176;2023-08-31T03:49:32;97761.19;;;16.53;70.85
550;BME280;20066;48.764;9.176;2023-08-31T03:52:01;97766.28;;;16.38;71.34
550;BME280;20066;48.764;9.176;2023-08-31T03:54:29;97776.72;;;16.52;70.31
550;BME280;20066;48.764;9.176;2023-08-31T03:56:57;97778.59;;;16.68;70.12
550;BME280;20066;48.764;9.176;2023-08-31T03:59:26;97769.44;;;16.62;70.01
550;BME280;20066;48.764;9.176;2023-08-31T04:01:54;97785.84;;;16.46;70.60
550;BME280;20066;48.764;9.176;2023-08-31T04:04:22;97778.75;;;16.36;70.77
550;BME280;20066;48.764;9.176;2023-08-31T04:06:50;97779.56;;;16.62;69.98
550;BME280;20066;48.764;9.176;2023-08-31T04:09:18;97779.88;;;16.51;70.45
550;BME280;20066;48.764;9.176;2023-08-31T04:11:45;97786.28;;;16.44;70.76
550;BME280;20066;48.764;9.176;2023-08-31T04:14:13;97783.28;;;16.13;71.28
550;BME280;20066;48.764;9.176;2023-08-31T04:16:42;97780.47;;;16.01;72.24
550;BME280;20066;48.764;9.176;2023-08-31T04:19:10;97777.34;;;15.73;72.54
550;BME280;20066;48.764;9.176;2023-08-31T04:21:38;97778.19;;;15.25;73.55
550;BME280;20066;48.764;9.176;2023-08-31T04:24:06;97788.06;;;15.48;74.09
550;BME280;20066;48.764;9.176;2023-08-31T04:26:34;97784.00;;;15.56;71.96
550;BME280;20066;48.764;9.176;2023-08-31T04:29:02;97788.59;;;15.27;73.83
550;BME280;20066;48.764;9.176;2023-08-31T04:31:32;97793.13;;;15.62;72.43
550;BME280;20066;48.764;9.176;2023-08-31T04:34:01;97793.44;;;14.99;74.02
550;BME280;20066;48.764;9.176;2023-08-31T04:36:29;97797.97;;;15.38;73.24
550;BME280;20066;48.764;9.176;2023-08-31T04:38:57;97797.72;;;15.33;72.61
550;BME280;20066;48.764;9.176;2023-08-31T04:41:25;97798.75;;;15.39;72.94
550;BME280;20066;48.764;9.176;2023-08-31T04:43:52;97805.66;;;15.72;71.29
550;BME280;20066;48.764;9.176;2023-08-31T04:46:20;97819.63;;;14.90;73.16
550;BME280;20066;48.764;9.176;2023-08-31T04:48:48;97812.84;;;14.82;74.75
550;BME280;20066;48.764;9.176;2023-08-31T04:51:34;97811.81;;;14.76;75.50
550;BME280;20066;48.764;9.176;2023-08-31T04:54:06;97800.09;;;14.62;76.08
550;BME280;20066;48.764;9.176;2023-08-31T04:56:37;97802.06;;;14.42;76.91
550;BME280;20066;48.764;9.176;2023-08-31T04:59:07;97814.94;;;14.74;76.85
550;BME280;20066;48.764;9.176;2023-08-31T05:01:35;97816.50;;;14.36;77.62
550;BME280;20066;48.764;9.176;2023-08-31T05:04:03;97813.50;;;14.86;74.94
550;BME280;20066;48.764;9.176;2023-08-31T05:06:31;97813.44;;;14.89;74.91
550;BME280;20066;48.764;9.176;2023-08-31T05:09:00;97818.75;;;15.29;73.43
550;BME280;20066;48.764;9.176;2023-08-31T05:11:29;97828.66;;;15.35;73.24
550;BME280;20066;48.764;9.176;2023-08-31T05:13:57;97833.72;;;15.50;71.94
550;BME280;20066;48.764;9.176;2023-08-31T05:16:25;97835.50;;;15.56;71.85
550;BME280;20066;48.764;9.176;2023-08-31T05:18:53;97830.25;;;15.65;72.16
550;BME280;20066;48.764;9.176;2023-08-31T05:21:21;97840.97;;;15.85;70.16
550;BME280;20066;48.764;9.176;2023-08-31T05:23:49;97837.28;;;15.47;72.69
550;BME280;20066;48.764;9.176;2023-08-31T05:26:20;97841.31;;;15.71;71.96
550;BME280;20066;48.764;9.176;2023-08-31T05:28:49;97851.16;;;15.65;71.71
550;BME280;20066;48.764;9.176;2023-08-31T05:31:17;97849.50;;;15.02;73.29
550;BME280;20066;48.764;9.176;2023-08-31T05:33:45;97858.28;;;15.59;72.49
550;BME280;20066;48.764;9.176;2023-08-31T05:36:13;97860.06;;;16.10;70.25
550;BME280;20066;48.764;9.176;2023-08-31T05:38:41;97859.63;;;16.28;69.82
550;BME280;20066;48.764;9.176;2023-08-31T05:41:09;97853.81;;;16.42;69.29
550;BME280;20066;48.764;9.176;2023-08-31T05:43:39;97856.75;;;16.48;68.95
550;BME280;20066;48.764;9.176;2023-08-31T05:46:08;97857.63;;;16.45;69.16
550;BME280;20066;48.764;9.176;2023-08-31T05:48:36;97862.25;;;16.32;70.37
550;BME280;20066;48.764;9.176;2023-08-31T05:51:04;97865.69;;;16.19;70.33
550;BME280;20066;48.764;9.176;2023-08-31T05:53:32;97859.78;;;16.37;69.76
550;BME280;20066;48.764;9.176;2023-08-31T05:56:01;97869.50;;;16.64;68.88
550;BME280;20066;48.764;9.176;2023-08-31T05:58:32;97863.56;;;16.81;68.28
550;BME280;20066;48.764;9.176;2023-08-31T06:01:02;97868.94;;;16.56;69.50
550;BME280;20066;48.764;9.176;2023-08-31T06:03:31;97868.63;;;16.25;69.54
550;BME280;20066;48.764;9.176;2023-08-31T06:06:00;97864.19;;;16.73;68.99
550;BME280;20066;48.764;9.176;2023-08-31T06:08:28;97869.81;;;16.53;69.05
550;BME280;20066;48.764;9.176;2023-08-31T06:10:57;97874.66;;;16.00;71.01
550;BME280;20066;48.764;9.176;2023-08-31T06:13:25;97879.81;;;16.27;70.92
550;BME280;20066;48.764;9.176;2023-08-31T06:15:54;97876.78;;;16.54;69.30
550;BME280;20066;48.764;9.176;2023-08-31T06:18:26;97883.97;;;16.61;69.57
550;BME280;20066;48.764;9.176;2023-08-31T06:20:53;97882.81;;;16.45;69.62
550;BME280;20066;48.764;9.176;2023-08-31T06:23:21;97891.28;;;16.18;70.82
550;BME280;20066;48.764;9.176;2023-08-31T06:25:49;97891.22;;;15.90;72.13
550;BME280;20066;48.764;9.176;2023-08-31T06:28:17;97894.63;;;16.39;70.45
550;BME280;20066;48.764;9.176;2023-08-31T06:30:45;97901.50;;;16.14;71.35
550;BME280;20066;48.764;9.176;2023-08-31T06:33:14;97897.00;;;16.78;69.07
550;BME280;20066;48.764;9.176;2023-08-31T06:35:46;97899.09;;;16.74;69.16
550;BME280;20066;48.764;9.176;2023-08-31T06:38:15;97893.41;;;17.23;67.64
550;BME280;20066;48.764;9.176;2023-08-31T06:40:43;97902.97;;;17.27;67.00
550;BME280;20066;48.764;9.176;2023-08-31T06:43:11;97897.75;;;17.33;66.66
550;BME280;20066;48.764;9.176;2023-08-31T06:45:39;97899.91;;;17.25;66.22
550;BME280;20066;48.764;9.176;2023-08-31T06:48:08;97906.91;;;17.39;66.04
550;BME280;20066;48.764;9.176;2023-08-31T06:50:36;97913.97;;;17.62;65.00
550;BME280;20066;48.764;9.176;2023-08-31T06:53:05;97917.81;;;16.98;66.38
550;BME280;20066;48.764;9.176;2023-08-31T06:55:33;97919.00;;;16.96;66.18
550;BME280;20066;48.764;9.176;2023-08-31T06:58:01;97922.50;;;15.62;71.01
550;BME280;20066;48.764;9.176;2023-08-31T07:00:31;97911.59;;;15.81;71.24
550;BME280;20066;48.764;9.176;2023-08-31T07:02:59;97913.56;;;16.26;69.30
550;BME280;20066;48.764;9.176;2023-08-31T07:05:27;97914.09;;;16.50;68.88
550;BME280;20066;48.764;9.176;2023-08-31T07:07:56;97915.34;;;16.33;68.07
550;BME280;20066;48.764;9.176;2023-08-31T07:10:26;97914.72;;;17.62;64.44
550;BME280;20066;48.764;9.176;2023-08-31T07:12:54;97923.66;;;16.83;65.28
550;BME280;20066;48.764;9.176;2023-08-31T07:15:22;97924.78;;;16.99;64.09
550;BME280;20066;48.764;9.176;2023-08-31T07:17:50;97921.91;;;16.77;65.32
550;BME280;20066;48.764;9.176;2023-08-31T07:20:21;97933.72;;;16.70;63.84
550;BME280;20066;48.764;9.176;2023-08-31T07:22:49;97929.69;;;16.33;67.12
550;BME280;20066;48.764;9.176;2023-08-31T07:25:17;97940.53;;;16.91;64.70
550;BME280;20066;48.764;9.176;2023-08-31T07:27:46;97936.22;;;16.65;64.81
550;BME280;20066;48.764;9.176;2023-08-31T07:30:14;97929.06;;;17.12;64.42
550;BME280;20066;48.764;9.176;2023-08-31T07:32:42;97945.06;;;16.94;62.51
550;BME280;20066;48.764;9.176;2023-08-31T07:35:09;97947.91;;;16.90;62.52
550;BME280;20066;48.764;9.176;2023-08-31T07:37:37;97954.06;;;16.49;63.14
550;BME280;20066;48.764;9.176;2023-08-31T07:40:07;97951.44;;;17.16;61.95
550;BME280;20066;48.764;9.176;2023-08-31T07:42:36;97952.44;;;18.45;57.66
550;BME280;20066;48.764;9.176;2023-08-31T07:45:07;97958.13;;;18.38;57.10
550;BME280;20066;48.764;9.176;2023-08-31T07:47:35;97951.38;;;17.58;57.04
550;BME280;20066;48.764;9.176;2023-08-31T07:50:04;97947.00;;;18.33;54.52
550;BME280;20066;48.764;9.176;2023-08-31T07:52:33;97945.78;;;18.12;55.11
550;BME280;20066;48.764;9.176;2023-08-31T07:55:01;97954.38;;;19.01;51.38
550;BME280;20066;48.764;9.176;2023-08-31T07:57:30;97952.41;;;20.22;50.07
550;BME280;20066;48.764;9.176;2023-08-31T07:59:58;97957.56;;;20.29;48.47
550;BME280;20066;48.764;9.176;2023-08-31T08:02:29;97952.78;;;19.84;48.68
550;BME280;20066;48.764;9.176;2023-08-31T08:04:57;97967.88;;;20.16;48.37
550;BME280;20066;48.764;9.176;2023-08-31T08:07:25;97954.81;;;20.02;48.44
550;BME280;20066;48.764;9.176;2023-08-31T08:09:52;97955.41;;;20.06;47.91
550;BME280;20066;48.764;9.176;2023-08-31T08:12:20;97944.75;;;19.89;45.85
550;BME280;20066;48.764;9.176;2023-08-31T08:14:48;97958.34;;;20.57;45.79
550;BME280;20066;48.764;9.176;2023-08-31T08:17:16;97954.06;;;20.10;45.69
550;BME280;20066;48.764;9.176;2023-08-31T08:19:46;97961.66;;;21.25;44.04
550;BME280;20066;48.764;9.176;2023-08-31T08:22:14;97969.91;;;21.81;41.97
550;BME280;20066;48.764;9.176;2023-08-31T08:24:42;97966.38;;;21.99;41.90
550;BME280;20066;48.764;9.176;2023-08-31T08:27:09;97967.13;;;22.62;40.64
550;BME280;20066;48.764;9.176;2023-08-31T08:29:37;97973.19;;;22.66;40.70
550;BME280;20066;48.764;9.176;2023-08-31T08:32:05;97979.00;;;22.20;39.29
550;BME280;20066;48.764;9.176;2023-08-31T08:34:35;97982.81;;;22.23;39.93
550;BME280;20066;48.764;9.176;2023-08-31T08:37:05;97974.47;;;22.17;39.53
550;BME280;20066;48.764;9.176;2023-08-31T08:39:32;97993.31;;;21.91;38.78
550;BME280;20066;48.764;9.176;2023-08-31T08:42:00;97982.06;;;21.57;40.10
550;BME280;20066;48.764;9.176;2023-08-31T08:44:32;97982.63;;;21.19;40.71
550;BME280;20066;48.764;9.176;2023-08-31T08:47:00;97992.53;;;22.48;39.27
550;BME280;20066;48.764;9.176;2023-08-31T08:49:30;97993.03;;;21.57;40.26
550;BME280;20066;48.764;9.176;2023-08-31T08:51:59;97989.44;;;20.23;42.04
550;BME280;20066;48.764;9.176;2023-08-31T08:54:28;97985.63;;;20.20;41.33
550;BME280;20066;48.764;9.176;2023-08-31T08:56:56;97989.09;;;21.48;39.59
550;BME280;20066;48.764;9.176;2023-08-31T08:59:24;97989.66;;;21.95;39.13
550;BME280;20066;48.764;9.176;2023-08-31T09:01:52;97990.25;;;20.51;41.76
550;BME280;20066;48.764;9.176;2023-08-31T09:04:20;97983.75;;;19.90;42.80
550;BME280;20066;48.764;9.176;2023-08-31T09:06:50;97989.59;;;19.48;44.15
550;BME280;20066;48.764;9.176;2023-08-31T09:09:18;97997.75;;;21.47;42.24
550;BME280;20066;48.764;9.176;2023-08-31T09:11:47;98006.97;;;20.71;41.77
550;BME280;20066;48.764;9.176;2023-08-31T09:14:19;98006.91;;;19.76;44.13
550;BME280;20066;48.764;9.176;2023-08-31T09:16:49;98001.94;;;19.84;44.13
550;BME280;20066;48.764;9.176;2023-08-31T09:19:18;98008.00;;;19.57;45.83
550;BME280;20066;48.764;9.176;2023-08-31T09:21:47;98015.63;;;20.60;42.83
550;BME280;20066;48.764;9.176;2023-08-31T09:24:15;98001.22;;;19.31;45.60
550;BME280;20066;48.764;9.176;2023-08-31T09:26:44;98020.47;;;21.29;42.48
550;BME280;20066;48.764;9.176;2023-08-31T09:29:14;98008.06;;;21.94;40.69
550;BME280;20066;48.764;9.176;2023-08-31T09:31:43;98002.03;;;22.61;38.84
550;BME280;20066;48.764;9.176;2023-08-31T09:34:12;98013.81;;;21.96;40.98
550;BME280;20066;48.764;9.176;2023-08-31T09:36:40;98009.38;;;21.24;41.06
550;BME280;20066;48.764;9.176;2023-08-31T09:39:09;98016.78;;;21.23;42.13
550;BME280;20066;48.764;9.176;2023-08-31T09:41:52;98016.78;;;21.23;41.14
550;BME280;20066;48.764;9.176;2023-08-31T09:44:21;98021.28;;;21.63;40.43
550;BME280;20066;48.764;9.176;2023-08-31T09:46:50;98011.44;;;22.46;38.38
550;BME280;20066;48.764;9.176;2023-08-31T09:49:20;98015.84;;;21.96;38.25
550;BME280;20066;48.764;9.176;2023-08-31T09:51:49;98015.19;;;21.59;37.53
550;BME280;20066;48.764;9.176;2023-08-31T09:54:19;98020.47;;;20.84;38.73
550;BME280;20066;48.764;9.176;2023-08-31T09:56:49;98018.19;;;21.19;37.41
550;BME280;20066;48.764;9.176;2023-08-31T09:59:18;98019.53;;;22.16;38.36
550;BME280;20066;48.764;9.176;2023-08-31T10:01:48;98020.00;;;22.86;35.10
550;BME280;20066;48.764;9.176;2023-08-31T10:04:17;98025.06;;;23.61;33.82
550;BME280;20066;48.764;9.176;2023-08-31T10:06:45;98020.00;;;22.86;34.92
550;BME280;20066;48.764;9.176;2023-08-31T10:09:13;98013.66;;;22.80;34.64
550;BME280;20066;48.764;9.176;2023-08-31T10:11:42;98030.16;;;20.39;37.30
550;BME280;20066;48.764;9.176;2023-08-31T10:14:11;98026.22;;;20.49;38.04
550;BME280;20066;48.764;9.176;2023-08-31T10:16:39;98019.66;;;22.46;35.05
550;BME280;20066;48.764;9.176;2023-08-31T10:19:11;98022.84;;;22.68;35.64
550;BME280;20066;48.764;9.176;2023-08-31T10:21:45;98018.69;;;22.96;33.50
550;BME280;20066;48.764;9.176;2023-08-31T10:24:13;98018.56;;;23.94;33.68
550;BME280;20066;48.764;9.176;2023-08-31T10:26:43;98021.72;;;22.98;34.40
550;BME280;20066;48.764;9.176;2023-08-31T10:29:26;98035.28;;;21.98;35.64
550;BME280;20066;48.764;9.176;2023-08-31T10:32:00;98025.50;;;22.15;35.66
550;BME280;20066;48.764;9.176;2023-08-31T10:34:36;98030.50;;;20.96;37.00
550;BME280;20066;48.764;9.176;2023-08-31T10:37:19;98032.16;;;21.30;37.50
550;BME280;20066;48.764;9.176;2023-08-31T10:39:47;98028.38;;;20.82;40.26
550;BME280;20066;48.764;9.176;2023-08-31T10:42:15;98033.69;;;21.31;39.19
550;BME280;20066;48.764;9.176;2023-08-31T10:44:43;98028.06;;;21.16;39.58
550;BME280;20066;48.764;9.176;2023-08-31T10:47:11;98030.41;;;22.35;37.59
550;BME280;20066;48.764;9.176;2023-08-31T10:49:50;98026.81;;;22.67;36.58
550;BME280;20066;48.764;9.176;2023-08-31T10:52:19;98018.75;;;20.31;38.88
550;BME280;20066;48.764;9.176;2023-08-31T10:55:07;98022.31;;;20.68;38.04
550;BME280;20066;48.764;9.176;2023-08-31T10:57:35;98027.00;;;20.59;38.67
550;BME280;20066;48.764;9.176;2023-08-31T11:00:04;98023.66;;;21.19;37.54
550;BME280;20066;48.764;9.176;2023-08-31T11:02:36;98019.69;;;21.20;37.77
550;BME280;20066;48.764;9.176;2023-08-31T11:05:10;98035.84;;;21.78;37.78
550;BME280;20066;48.764;9.176;2023-08-31T11:07:39;98032.31;;;20.81;39.86
550;BME280;20066;48.764;9.176;2023-08-31T11:10:10;98036.56;;;21.18;38.51
550;BME280;20066;48.764;9.176;2023-08-31T11:12:38;98027.88;;;21.38;39.11
550;BME280;20066;48.764;9.176;2023-08-31T11:15:07;98030.81;;;21.76;37.57
550;BME280;20066;48.764;9.176;2023-08-31T11:17:36;98040.00;;;21.64;38.76
550;BME280;20066;48.764;9.176;2023-08-31T11:20:12;98028.94;;;22.24;37.25
550;BME280;20066;48.764;9.176;2023-08-31T11:22:41;98029.78;;;22.07;37.63
550;BME280;20066;48.764;9.176;2023-08-31T11:25:11;98022.00;;;23.00;35.29
550;BME280;20066;48.764;9.176;2023-08-31T11:27:40;98015.75;;;23.88;34.15
550;BME280;20066;48.764;9.176;2023-08-31T11:30:12;98012.75;;;23.71;35.20
550;BME280;20066;48.764;9.176;2023-08-31T11:35:34;98006.81;;;26.03;31.89
550;BME280;20066;48.764;9.176;2023-08-31T11:38:03;98000.34;;;24.72;32.75
550;BME280;20066;48.764;9.176;2023-08-31T11:40:37;98006.59;;;24.92;33.87
550;BME280;20066;48.764;9.176;2023-08-31T11:43:06;98008.75;;;23.87;32.92
550;BME280;20066;48.764;9.176;2023-08-31T11:45:46;98015.44;;;24.01;33.26
550;BME280;20066;48.764;9.176;2023-08-31T11:48:16;98006.16;;;24.33;33.82
550;BME280;20066;48.764;9.176;2023-08-31T11:50:50;98006.28;;;24.24;35.02
550;BME280;20066;48.764;9.176;2023-08-31T11:53:20;97998.25;;;24.41;33.68
550;BME280;20066;48.764;9.176;2023-08-31T11:55:51;98000.94;;;24.00;34.10
550;BME280;20066;48.764;9.176;2023-08-31T11:58:25;98003.00;;;24.40;34.53
550;BME280;20066;48.764;9.176;2023-08-31T12:00:57;97986.03;;;24.07;33.22
550;BME280;20066;48.764;9.176;2023-08-31T12:03:27;97994.09;;;23.17;35.50
550;BME280;20066;48.764;9.176;2023-08-31T12:06:17;97998.75;;;23.11;35.09
550;BME280;20066;48.764;9.176;2023-08-31T12:08:47;98000.84;;;24.30;34.56
550;BME280;20066;48.764;9.176;2023-08-31T12:11:22;98007.75;;;24.05;34.74
550;BME280;20066;48.764;9.176;2023-08-31T12:13:53;98011.53;;;22.27;36.17
550;BME280;20066;48.764;9.176;2023-08-31T12:16:24;98003.47;;;22.33;35.97
550;BME280;20066;48.764;9.176;2023-08-31T12:18:59;98001.13;;;21.84;37.28
550;BME280;20066;48.764;9.176;2023-08-31T12:21:30;98000.28;;;23.41;34.89
550;BME280;20066;48.764;9.176;2023-08-31T12:23:59;98011.41;;;23.67;33.38
550;BME280;20066;48.764;9.176;2023-08-31T12:26:30;98001.66;;;23.22;34.74
550;BME280;20066;48.764;9.176;2023-08-31T12:29:04;97993.75;;;22.47;36.45
550;BME280;20066;48.764;9.176;2023-08-31T12:31:33;98000.00;;;21.90;37.44
550;BME280;20066;48.764;9.176;2023-08-31T12:34:08;97995.22;;;21.76;38.04
550;BME280;20066;48.764;9.176;2023-08-31T12:36:42;97989.66;;;23.34;36.25
550;BME280;20066;48.764;9.176;2023-08-31T12:39:10;97993.53;;;23.57;34.35
550;BME280;20066;48.764;9.176;2023-08-31T12:41:44;97990.59;;;24.30;32.29
550;BME280;20066;48.764;9.176;2023-08-31T12:44:12;97993.69;;;25.93;30.89
550;BME280;20066;48.764;9.176;2023-08-31T12:46:43;97995.56;;;24.67;32.07
550;BME280;20066;48.764;9.176;2023-08-31T12:49:12;97988.50;;;24.05;33.07
550;BME280;20066;48.764;9.176;2023-08-31T12:51:42;97985.66;;;24.34;33.86
550;BME280;20066;48.764;9.176;2023-08-31T12:54:12;97989.72;;;24.39;33.33
550;BME280;20066;48.764;9.176;2023-08-31T12:56:42;97988.56;;;22.73;36.08
550;BME280;20066;48.764;9.176;2023-08-31T12:59:13;97986.34;;;23.15;36.33
550;BME280;20066;48.764;9.176;2023-08-31T13:01:55;97989.88;;;22.39;36.43
550;BME280;20066;48.764;9.176;2023-08-31T13:04:24;98003.34;;;22.04;37.64
550;BME280;20066;48.764;9.176;2023-08-31T13:06:56;97996.84;;;22.63;36.95
550;BME280;20066;48.764;9.176;2023-08-31T13:09:29;97998.44;;;22.08;38.13
550;BME280;20066;48.764;9.176;2023-08-31T13:11:59;98003.53;;;21.82;37.38
550;BME280;20066;48.764;9.176;2023-08-31T13:14:31;98008.22;;;22.23;38.22
550;BME280;20066;48.764;9.176;2023-08-31T13:17:03;98002.78;;;22.62;37.22
550;BME280;20066;48.764;9.176;2023-08-31T13:19:33;98006.72;;;22.46;38.20
550;BME280;20066;48.764;9.176;2023-08-31T13:22:11;98003.25;;;22.99;36.90
550;BME280;20066;48.764;9.176;2023-08-31T13:24:45;98001.00;;;22.11;38.93
550;BME280;20066;48.764;9.176;2023-08-31T13:27:15;98004.34;;;24.71;34.36
550;BME280;20066;48.764;9.176;2023-08-31T13:29:46;97994.19;;;25.54;32.54
550;BME280;20066;48.764;9.176;2023-08-31T13:32:17;97990.66;;;27.04;30.57
550;BME280;20066;48.764;9.176;2023-08-31T13:34:53;97986.41;;;24.75;32.67
550;BME280;20066;48.764;9.176;2023-08-31T13:37:23;97985.13;;;25.48;32.20